Terminal Aerodrome Forecast
Issued by NWS Atlanta, GA

Home | Current Version | Previous Version | Text Only | Print | Product List | Glossary On
Versions: 1 2 3 4 5 6 7 8 9 10 11 12 13 14 15 16
000
FTUS42 KFFC 181908 AAA
TAFMCN
TAF AMD
KMCN 181908Z 1819/1918 28006KT 6SM -SHRA BR BKN035
     FM190200 28003KT 6SM BR VCSH SCT003 BKN015
     FM190600 00000KT 4SM BR SCT002 BKN008
     FM190900 00000KT 1SM BR BKN002
     FM191500 29003KT 3SM BR BKN005=

USA.gov is the U.S. government's official web portal to all federal, state and local government web resources and services.